sensor_id;sensor_type;location;lat;lon;timestamp;temperature;humidity
46055;DHT22;31788;6.954;-71.872;2022-11-22T00:00:26;27.50;99.90
46055;DHT22;31788;6.954;-71.872;2022-11-22T00:02:53;27.50;99.90
46055;DHT22;31788;6.954;-71.872;2022-11-22T00:05:20;27.40;99.90
46055;DHT22;31788;6.954;-71.872;2022-11-22T00:07:48;27.50;99.90
46055;DHT22;31788;6.954;-71.872;2022-11-22T00:10:15;27.40;99.90
46055;DHT22;31788;6.954;-71.872;2022-11-22T00:12:42;27.40;99.90
46055;DHT22;31788;6.954;-71.872;2022-11-22T00:15:10;27.40;99.90
46055;DHT22;31788;6.954;-71.872;2022-11-22T00:17:37;27.40;99.90
46055;DHT22;31788;6.954;-71.872;2022-11-22T00:20:05;27.40;99.90
46055;DHT22;31788;6.954;-71.872;2022-11-22T00:22:32;27.30;99.90
46055;DHT22;31788;6.954;-71.872;2022-11-22T00:24:59;27.30;99.90
46055;DHT22;31788;6.954;-71.872;2022-11-22T00:27:25;27.20;99.90
46055;DHT22;31788;6.954;-71.872;2022-11-22T00:29:53;27.20;99.90
46055;DHT22;31788;6.954;-71.872;2022-11-22T00:32:20;27.20;99.90
46055;DHT22;31788;6.954;-71.872;2022-11-22T00:34:46;27.10;99.90
46055;DHT22;31788;6.954;-71.872;2022-11-22T00:37:13;27.20;99.90
46055;DHT22;31788;6.954;-71.872;2022-11-22T00:39:39;27.20;99.90
46055;DHT22;31788;6.954;-71.872;2022-11-22T00:42:07;27.20;99.90
46055;DHT22;31788;6.954;-71.872;2022-11-22T00:44:33;27.20;99.90
46055;DHT22;31788;6.954;-71.872;2022-11-22T00:47:00;27.20;99.90
46055;DHT22;31788;6.954;-71.872;2022-11-22T00:49:26;27.20;99.90
46055;DHT22;31788;6.954;-71.872;2022-11-22T00:51:53;27.20;99.90
46055;DHT22;31788;6.954;-71.872;2022-11-22T00:54:19;27.20;99.90
46055;DHT22;31788;6.954;-71.872;2022-11-22T00:56:46;27.20;99.90
46055;DHT22;31788;6.954;-71.872;2022-11-22T00:59:13;27.20;99.90
46055;DHT22;31788;6.954;-71.872;2022-11-22T01:01:39;27.10;99.90
46055;DHT22;31788;6.954;-71.872;2022-11-22T01:04:06;27.10;99.90
46055;DHT22;31788;6.954;-71.872;2022-11-22T01:06:36;27.10;99.90
46055;DHT22;31788;6.954;-71.872;2022-11-22T01:09:02;27.10;99.90
46055;DHT22;31788;6.954;-71.872;2022-11-22T01:11:29;27.10;99.90
46055;DHT22;31788;6.954;-71.872;2022-11-22T01:13:59;27.10;99.90
46055;DHT22;31788;6.954;-71.872;2022-11-22T01:16:26;27.10;99.90
46055;DHT22;31788;6.954;-71.872;2022-11-22T01:18:52;27.10;99.90
46055;DHT22;31788;6.954;-71.872;2022-11-22T01:21:21;27.10;99.90
46055;DHT22;31788;6.954;-71.872;2022-11-22T01:23:48;27.10;99.90
46055;DHT22;31788;6.954;-71.872;2022-11-22T01:26:14;27.10;99.90
46055;DHT22;31788;6.954;-71.872;2022-11-22T01:28:42;27.10;99.90
46055;DHT22;31788;6.954;-71.872;2022-11-22T01:31:09;27.10;99.90
46055;DHT22;31788;6.954;-71.872;2022-11-22T01:33:35;27.10;99.90
46055;DHT22;31788;6.954;-71.872;2022-11-22T01:36:04;27.00;99.90
46055;DHT22;31788;6.954;-71.872;2022-11-22T01:38:31;27.10;99.90
46055;DHT22;31788;6.954;-71.872;2022-11-22T01:41:01;27.10;99.90
46055;DHT22;31788;6.954;-71.872;2022-11-22T01:43:28;27.10;99.90
46055;DHT22;31788;6.954;-71.872;2022-11-22T01:46:01;27.10;99.90
46055;DHT22;31788;6.954;-71.872;2022-11-22T01:51:28;27.10;99.90
46055;DHT22;31788;6.954;-71.872;2022-11-22T01:53:59;27.20;99.90
46055;DHT22;31788;6.954;-71.872;2022-11-22T01:56:28;27.10;99.90
46055;DHT22;31788;6.954;-71.872;2022-11-22T01:59:01;27.10;99.90
46055;DHT22;31788;6.954;-71.872;2022-11-22T02:01:29;27.10;99.90
46055;DHT22;31788;6.954;-71.872;2022-11-22T02:03:57;27.20;99.90
46055;DHT22;31788;6.954;-71.872;2022-11-22T02:06:41;27.20;99.90
46055;DHT22;31788;6.954;-71.872;2022-11-22T02:09:14;27.20;99.90
46055;DHT22;31788;6.954;-71.872;2022-11-22T02:11:45;27.20;99.90
46055;DHT22;31788;6.954;-71.872;2022-11-22T02:14:15;27.10;99.90
46055;DHT22;31788;6.954;-71.872;2022-11-22T02:16:45;27.20;99.90
46055;DHT22;31788;6.954;-71.872;2022-11-22T02:19:18;27.10;99.90
46055;DHT22;31788;6.954;-71.872;2022-11-22T02:21:48;27.20;99.90
46055;DHT22;31788;6.954;-71.872;2022-11-22T02:24:23;27.20;99.90
46055;DHT22;31788;6.954;-71.872;2022-11-22T02:26:51;27.20;99.90
46055;DHT22;31788;6.954;-71.872;2022-11-22T02:29:17;27.10;99.90
46055;DHT22;31788;6.954;-71.872;2022-11-22T02:31:45;27.10;99.90
46055;DHT22;31788;6.954;-71.872;2022-11-22T02:34:13;27.20;99.90
46055;DHT22;31788;6.954;-71.872;2022-11-22T02:36:45;27.10;99.90
46055;DHT22;31788;6.954;-71.872;2022-11-22T02:39:15;27.10;99.90
46055;DHT22;31788;6.954;-71.872;2022-11-22T02:41:43;27.10;99.90
46055;DHT22;31788;6.954;-71.872;2022-11-22T02:44:10;27.10;99.90
46055;DHT22;31788;6.954;-71.872;2022-11-22T02:46:46;27.20;99.90
46055;DHT22;31788;6.954;-71.872;2022-11-22T02:49:18;27.10;99.90
46055;DHT22;31788;6.954;-71.872;2022-11-22T02:51:46;27.10;99.90
46055;DHT22;31788;6.954;-71.872;2022-11-22T02:54:13;27.10;99.90
46055;DHT22;31788;6.954;-71.872;2022-11-22T02:56:40;27.10;99.90
46055;DHT22;31788;6.954;-71.872;2022-11-22T02:59:07;27.10;99.90
46055;DHT22;31788;6.954;-71.872;2022-11-22T03:01:34;27.10;99.90
46055;DHT22;31788;6.954;-71.872;2022-11-22T03:04:01;27.10;99.90
46055;DHT22;31788;6.954;-71.872;2022-11-22T03:06:28;27.10;99.90
46055;DHT22;31788;6.954;-71.872;2022-11-22T03:08:56;27.10;99.90
46055;DHT22;31788;6.954;-71.872;2022-11-22T03:11:23;27.10;99.90
46055;DHT22;31788;6.954;-71.872;2022-11-22T03:13:50;27.10;99.90
46055;DHT22;31788;6.954;-71.872;2022-11-22T03:16:17;27.10;99.90
46055;DHT22;31788;6.954;-71.872;2022-11-22T03:18:43;27.10;99.90
46055;DHT22;31788;6.954;-71.872;2022-11-22T03:21:10;27.10;99.90
46055;DHT22;31788;6.954;-71.872;2022-11-22T03:23:36;27.10;99.90
46055;DHT22;31788;6.954;-71.872;2022-11-22T03:26:08;27.10;99.90
46055;DHT22;31788;6.954;-71.872;2022-11-22T03:28:35;27.10;99.90
46055;DHT22;31788;6.954;-71.872;2022-11-22T03:31:04;27.10;99.90
46055;DHT22;31788;6.954;-71.872;2022-11-22T03:33:32;27.10;99.90
46055;DHT22;31788;6.954;-71.872;2022-11-22T03:36:00;27.10;99.90
46055;DHT22;31788;6.954;-71.872;2022-11-22T03:38:27;27.10;99.90
46055;DHT22;31788;6.954;-71.872;2022-11-22T03:40:53;27.10;99.90
46055;DHT22;31788;6.954;-71.872;2022-11-22T03:43:21;27.10;99.90
46055;DHT22;31788;6.954;-71.872;2022-11-22T03:45:48;27.10;99.90
46055;DHT22;31788;6.954;-71.872;2022-11-22T03:48:14;27.10;99.80
46055;DHT22;31788;6.954;-71.872;2022-11-22T03:50:42;27.10;99.90
46055;DHT22;31788;6.954;-71.872;2022-11-22T03:53:09;27.00;99.90
46055;DHT22;31788;6.954;-71.872;2022-11-22T03:55:36;27.10;99.90
46055;DHT22;31788;6.954;-71.872;2022-11-22T03:58:03;27.00;99.90
46055;DHT22;31788;6.954;-71.872;2022-11-22T04:00:30;27.00;99.90
46055;DHT22;31788;6.954;-71.872;2022-11-22T04:02:57;27.10;99.90
46055;DHT22;31788;6.954;-71.872;2022-11-22T04:05:26;27.10;99.90
46055;DHT22;31788;6.954;-71.872;2022-11-22T04:07:53;27.00;99.90
46055;DHT22;31788;6.954;-71.872;2022-11-22T04:10:23;27.10;99.90
46055;DHT22;31788;6.954;-71.872;2022-11-22T04:12:50;27.00;99.90
46055;DHT22;31788;6.954;-71.872;2022-11-22T04:15:16;27.00;99.90
46055;DHT22;31788;6.954;-71.872;2022-11-22T04:17:44;27.00;99.90
46055;DHT22;31788;6.954;-71.872;2022-11-22T04:20:12;27.10;99.90
46055;DHT22;31788;6.954;-71.872;2022-11-22T04:23:03;27.10;99.90
46055;DHT22;31788;6.954;-71.872;2022-11-22T04:25:33;27.10;99.90
46055;DHT22;31788;6.954;-71.872;2022-11-22T04:28:03;27.10;99.90
46055;DHT22;31788;6.954;-71.872;2022-11-22T04:30:29;27.10;99.90
46055;DHT22;31788;6.954;-71.872;2022-11-22T04:33:15;27.00;99.90
46055;DHT22;31788;6.954;-71.872;2022-11-22T04:35:43;27.00;99.90
46055;DHT22;31788;6.954;-71.872;2022-11-22T04:38:10;27.00;99.90
46055;DHT22;31788;6.954;-71.872;2022-11-22T04:40:37;27.00;99.90
46055;DHT22;31788;6.954;-71.872;2022-11-22T04:43:05;27.00;99.90
46055;DHT22;31788;6.954;-71.872;2022-11-22T04:45:50;27.00;99.90
46055;DHT22;31788;6.954;-71.872;2022-11-22T04:48:17;27.00;99.90
46055;DHT22;31788;6.954;-71.872;2022-11-22T04:50:44;27.00;99.90
46055;DHT22;31788;6.954;-71.872;2022-11-22T04:53:31;26.90;99.90
46055;DHT22;31788;6.954;-71.872;2022-11-22T04:55:58;27.00;99.90
46055;DHT22;31788;6.954;-71.872;2022-11-22T04:58:24;27.00;99.90
46055;DHT22;31788;6.954;-71.872;2022-11-22T05:00:51;27.00;99.90
46055;DHT22;31788;6.954;-71.872;2022-11-22T05:03:18;27.00;99.90
46055;DHT22;31788;6.954;-71.872;2022-11-22T05:05:45;27.00;99.90
46055;DHT22;31788;6.954;-71.872;2022-11-22T05:08:12;26.90;99.90
46055;DHT22;31788;6.954;-71.872;2022-11-22T05:10:39;26.90;99.90
46055;DHT22;31788;6.954;-71.872;2022-11-22T05:13:29;26.90;99.90
46055;DHT22;31788;6.954;-71.872;2022-11-22T05:15:57;26.90;99.90
46055;DHT22;31788;6.954;-71.872;2022-11-22T05:18:24;26.90;99.90
46055;DHT22;31788;6.954;-71.872;2022-11-22T05:20:51;26.90;99.90
46055;DHT22;31788;6.954;-71.872;2022-11-22T05:23:19;26.90;99.90
46055;DHT22;31788;6.954;-71.872;2022-11-22T05:26:09;26.90;99.90
46055;DHT22;31788;6.954;-71.872;2022-11-22T05:28:37;26.90;99.90
46055;DHT22;31788;6.954;-71.872;2022-11-22T05:31:09;26.90;99.90
46055;DHT22;31788;6.954;-71.872;2022-11-22T05:33:40;26.90;99.90
46055;DHT22;31788;6.954;-71.872;2022-11-22T05:36:08;26.90;99.90
46055;DHT22;31788;6.954;-71.872;2022-11-22T05:38:35;26.90;99.90
46055;DHT22;31788;6.954;-71.872;2022-11-22T05:41:06;26.90;99.90
46055;DHT22;31788;6.954;-71.872;2022-11-22T05:43:33;26.80;99.90
46055;DHT22;31788;6.954;-71.872;2022-11-22T05:46:21;26.80;99.90
46055;DHT22;31788;6.954;-71.872;2022-11-22T05:48:48;26.80;99.90
46055;DHT22;31788;6.954;-71.872;2022-11-22T05:51:17;26.90;99.90
46055;DHT22;31788;6.954;-71.872;2022-11-22T05:53:44;26.90;99.90
46055;DHT22;31788;6.954;-71.872;2022-11-22T05:56:12;26.90;99.90
46055;DHT22;31788;6.954;-71.872;2022-11-22T05:58:39;26.90;99.90
46055;DHT22;31788;6.954;-71.872;2022-11-22T06:01:18;26.90;99.90
46055;DHT22;31788;6.954;-71.872;2022-11-22T06:03:45;26.90;99.90
46055;DHT22;31788;6.954;-71.872;2022-11-22T06:06:13;26.90;99.90
46055;DHT22;31788;6.954;-71.872;2022-11-22T06:08:40;26.90;99.90
46055;DHT22;31788;6.954;-71.872;2022-11-22T06:11:16;27.00;99.90
46055;DHT22;31788;6.954;-71.872;2022-11-22T06:13:45;26.90;99.90
46055;DHT22;31788;6.954;-71.872;2022-11-22T06:16:12;26.80;99.90
46055;DHT22;31788;6.954;-71.872;2022-11-22T06:18:39;26.90;99.90
46055;DHT22;31788;6.954;-71.872;2022-11-22T06:21:11;26.90;99.90
46055;DHT22;31788;6.954;-71.872;2022-11-22T06:23:38;26.90;99.90
46055;DHT22;31788;6.954;-71.872;2022-11-22T06:26:06;26.90;99.90
46055;DHT22;31788;6.954;-71.872;2022-11-22T06:28:34;26.90;99.90
46055;DHT22;31788;6.954;-71.872;2022-11-22T06:31:02;26.90;99.90
46055;DHT22;31788;6.954;-71.872;2022-11-22T06:33:29;26.90;99.90
46055;DHT22;31788;6.954;-71.872;2022-11-22T06:36:04;26.80;99.90
46055;DHT22;31788;6.954;-71.872;2022-11-22T06:38:31;26.80;99.90
46055;DHT22;31788;6.954;-71.872;2022-11-22T06:41:09;26.90;99.90
46055;DHT22;31788;6.954;-71.872;2022-11-22T06:43:38;26.90;99.90
46055;DHT22;31788;6.954;-71.872;2022-11-22T06:46:05;26.90;99.90
46055;DHT22;31788;6.954;-71.872;2022-11-22T06:48:34;26.90;99.90
46055;DHT22;31788;6.954;-71.872;2022-11-22T06:51:02;26.90;99.90
46055;DHT22;31788;6.954;-71.872;2022-11-22T06:53:31;26.90;99.90
46055;DHT22;31788;6.954;-71.872;2022-11-22T06:58:35;27.00;99.90
46055;DHT22;31788;6.954;-71.872;2022-11-22T07:03:42;26.90;99.90
46055;DHT22;31788;6.954;-71.872;2022-11-22T07:06:10;27.00;99.90
46055;DHT22;31788;6.954;-71.872;2022-11-22T07:08:37;26.90;99.90
46055;DHT22;31788;6.954;-71.872;2022-11-22T07:11:06;26.90;99.90
46055;DHT22;31788;6.954;-71.872;2022-11-22T07:13:34;26.90;99.90
46055;DHT22;31788;6.954;-71.872;2022-11-22T07:16:02;26.80;99.90
46055;DHT22;31788;6.954;-71.872;2022-11-22T07:18:30;26.80;99.90
46055;DHT22;31788;6.954;-71.872;2022-11-22T07:21:01;26.80;99.90
46055;DHT22;31788;6.954;-71.872;2022-11-22T07:23:28;26.80;99.90
46055;DHT22;31788;6.954;-71.872;2022-11-22T07:25:56;26.80;99.90
46055;DHT22;31788;6.954;-71.872;2022-11-22T07:28:23;26.80;99.90
46055;DHT22;31788;6.954;-71.872;2022-11-22T07:30:49;26.70;99.90
46055;DHT22;31788;6.954;-71.872;2022-11-22T07:33:17;26.80;99.90
46055;DHT22;31788;6.954;-71.872;2022-11-22T07:35:43;26.80;99.90
46055;DHT22;31788;6.954;-71.872;2022-11-22T07:38:10;26.80;99.90
46055;DHT22;31788;6.954;-71.872;2022-11-22T07:40:36;26.80;99.90
46055;DHT22;31788;6.954;-71.872;2022-11-22T07:43:03;26.80;99.90
46055;DHT22;31788;6.954;-71.872;2022-11-22T07:45:29;26.80;99.90
46055;DHT22;31788;6.954;-71.872;2022-11-22T07:47:59;26.80;99.90
46055;DHT22;31788;6.954;-71.872;2022-11-22T07:50:25;26.80;99.90
46055;DHT22;31788;6.954;-71.872;2022-11-22T07:53:01;26.90;99.90
46055;DHT22;31788;6.954;-71.872;2022-11-22T07:55:28;26.80;99.90
46055;DHT22;31788;6.954;-71.872;2022-11-22T07:57:59;26.80;99.90
46055;DHT22;31788;6.954;-71.872;2022-11-22T08:00:26;26.80;99.90
46055;DHT22;31788;6.954;-71.872;2022-11-22T08:02:53;26.80;99.90
46055;DHT22;31788;6.954;-71.872;2022-11-22T08:05:20;26.80;99.90
46055;DHT22;31788;6.954;-71.872;2022-11-22T08:07:48;26.80;99.90
46055;DHT22;31788;6.954;-71.872;2022-11-22T08:10:15;26.80;99.90
46055;DHT22;31788;6.954;-71.872;2022-11-22T08:12:42;26.80;99.90
46055;DHT22;31788;6.954;-71.872;2022-11-22T08:15:11;26.80;99.90
46055;DHT22;31788;6.954;-71.872;2022-11-22T08:17:39;26.80;99.90
46055;DHT22;31788;6.954;-71.872;2022-11-22T08:20:07;26.80;99.90
46055;DHT22;31788;6.954;-71.872;2022-11-22T08:22:37;26.80;99.90
46055;DHT22;31788;6.954;-71.872;2022-11-22T08:25:05;26.80;99.90
46055;DHT22;31788;6.954;-71.872;2022-11-22T08:27:38;26.80;99.90
46055;DHT22;31788;6.954;-71.872;2022-11-22T08:30:06;26.80;99.90
46055;DHT22;31788;6.954;-71.872;2022-11-22T08:32:33;26.80;99.90
46055;DHT22;31788;6.954;-71.872;2022-11-22T08:34:59;26.80;99.90
46055;DHT22;31788;6.954;-71.872;2022-11-22T08:37:26;26.80;99.90
46055;DHT22;31788;6.954;-71.872;2022-11-22T08:39:52;26.80;99.90
46055;DHT22;31788;6.954;-71.872;2022-11-22T08:42:19;26.80;99.90
46055;DHT22;31788;6.954;-71.872;2022-11-22T08:44:45;26.80;99.90
46055;DHT22;31788;6.954;-71.872;2022-11-22T08:47:12;26.80;99.90
46055;DHT22;31788;6.954;-71.872;2022-11-22T08:49:39;26.80;99.90
46055;DHT22;31788;6.954;-71.872;2022-11-22T08:52:05;26.80;99.90
46055;DHT22;31788;6.954;-71.872;2022-11-22T08:54:32;26.70;99.90
46055;DHT22;31788;6.954;-71.872;2022-11-22T08:56:58;26.70;99.90
46055;DHT22;31788;6.954;-71.872;2022-11-22T08:59:25;26.70;99.90
46055;DHT22;31788;6.954;-71.872;2022-11-22T09:01:51;26.70;99.90
46055;DHT22;31788;6.954;-71.872;2022-11-22T09:04:18;26.60;99.90
46055;DHT22;31788;6.954;-71.872;2022-11-22T09:06:44;26.70;99.90
46055;DHT22;31788;6.954;-71.872;2022-11-22T09:09:11;26.70;99.90
46055;DHT22;31788;6.954;-71.872;2022-11-22T09:11:37;26.60;99.90
46055;DHT22;31788;6.954;-71.872;2022-11-22T09:14:04;26.70;99.90
46055;DHT22;31788;6.954;-71.872;2022-11-22T09:16:30;26.70;99.90
46055;DHT22;31788;6.954;-71.872;2022-11-22T09:18:57;26.70;99.90
46055;DHT22;31788;6.954;-71.872;2022-11-22T09:21:24;26.60;99.90
46055;DHT22;31788;6.954;-71.872;2022-11-22T09:23:51;26.60;99.90
46055;DHT22;31788;6.954;-71.872;2022-11-22T09:26:23;26.60;99.90
46055;DHT22;31788;6.954;-71.872;2022-11-22T09:28:50;26.60;99.90
46055;DHT22;31788;6.954;-71.872;2022-11-22T09:31:20;26.70;99.90
46055;DHT22;31788;6.954;-71.872;2022-11-22T09:33:48;26.70;99.90
46055;DHT22;31788;6.954;-71.872;2022-11-22T09:36:17;26.60;99.90
46055;DHT22;31788;6.954;-71.872;2022-11-22T09:38:44;26.60;99.90
46055;DHT22;31788;6.954;-71.872;2022-11-22T09:50:01;26.70;99.90
46055;DHT22;31788;6.954;-71.872;2022-11-22T09:55:41;26.70;99.90
46055;DHT22;31788;6.954;-71.872;2022-11-22T09:58:34;26.60;99.90
46055;DHT22;31788;6.954;-71.872;2022-11-22T10:03:48;26.60;99.90
46055;DHT22;31788;6.954;-71.872;2022-11-22T10:06:30;26.60;99.90
46055;DHT22;31788;6.954;-71.872;2022-11-22T10:09:33;26.50;99.90
46055;DHT22;31788;6.954;-71.872;2022-11-22T10:12:12;26.60;99.90
46055;DHT22;31788;6.954;-71.872;2022-11-22T10:14:46;26.60;99.90
46055;DHT22;31788;6.954;-71.872;2022-11-22T10:20:14;26.60;99.90
46055;DHT22;31788;6.954;-71.872;2022-11-22T10:22:41;26.60;99.90
46055;DHT22;31788;6.954;-71.872;2022-11-22T10:27:57;26.60;99.90
46055;DHT22;31788;6.954;-71.872;2022-11-22T10:30:25;26.60;99.90
46055;DHT22;31788;6.954;-71.872;2022-11-22T10:41:29;26.60;99.90
46055;DHT22;31788;6.954;-71.872;2022-11-22T10:47:05;26.50;99.90
46055;DHT22;31788;6.954;-71.872;2022-11-22T11:01:37;26.50;99.90
46055;DHT22;31788;6.954;-71.872;2022-11-22T11:04:06;26.50;99.90
46055;DHT22;31788;6.954;-71.872;2022-11-22T11:06:49;26.50;99.90
46055;DHT22;31788;6.954;-71.872;2022-11-22T11:15:01;26.50;99.90
46055;DHT22;31788;6.954;-71.872;2022-11-22T11:17:35;26.50;99.90
46055;DHT22;31788;6.954;-71.872;2022-11-22T11:20:11;26.50;99.90
46055;DHT22;31788;6.954;-71.872;2022-11-22T11:22:38;26.50;99.90
46055;DHT22;31788;6.954;-71.872;2022-11-22T11:25:31;26.60;99.90
46055;DHT22;31788;6.954;-71.872;2022-11-22T11:28:23;26.60;99.90
46055;DHT22;31788;6.954;-71.872;2022-11-22T11:30:54;26.50;99.90
46055;DHT22;31788;6.954;-71.872;2022-11-22T11:33:31;26.50;99.90
46055;DHT22;31788;6.954;-71.872;2022-11-22T11:36:19;26.60;99.90
46055;DHT22;31788;6.954;-71.872;2022-11-22T11:38:56;26.60;99.90
46055;DHT22;31788;6.954;-71.872;2022-11-22T11:41:33;26.50;99.90
46055;DHT22;31788;6.954;-71.872;2022-11-22T11:44:02;26.50;99.90
46055;DHT22;31788;6.954;-71.872;2022-11-22T11:46:44;26.50;99.90
46055;DHT22;31788;6.954;-71.872;2022-11-22T11:49:16;26.50;99.90
46055;DHT22;31788;6.954;-71.872;2022-11-22T11:54:39;26.50;99.90
46055;DHT22;31788;6.954;-71.872;2022-11-22T11:57:14;26.50;99.90
46055;DHT22;31788;6.954;-71.872;2022-11-22T11:59:48;26.50;99.90
46055;DHT22;31788;6.954;-71.872;2022-11-22T12:02:37;26.50;99.90
46055;DHT22;31788;6.954;-71.872;2022-11-22T12:05:24;26.50;99.90
46055;DHT22;31788;6.954;-71.872;2022-11-22T12:07:51;26.50;99.90
46055;DHT22;31788;6.954;-71.872;2022-11-22T12:10:36;26.50;99.90
46055;DHT22;31788;6.954;-71.872;2022-11-22T12:15:41;26.50;99.90
46055;DHT22;31788;6.954;-71.872;2022-11-22T12:26:21;26.70;99.90
46055;DHT22;31788;6.954;-71.872;2022-11-22T12:28:48;26.60;99.90
46055;DHT22;31788;6.954;-71.872;2022-11-22T12:34:01;26.70;99.90
46055;DHT22;31788;6.954;-71.872;2022-11-22T12:39:11;26.70;99.90
46055;DHT22;31788;6.954;-71.872;2022-11-22T12:41:40;26.80;99.90
46055;DHT22;31788;6.954;-71.872;2022-11-22T12:44:19;26.80;99.90
46055;DHT22;31788;6.954;-71.872;2022-11-22T12:47:15;26.80;99.90
46055;DHT22;31788;6.954;-71.872;2022-11-22T12:49:52;26.90;99.90
46055;DHT22;31788;6.954;-71.872;2022-11-22T12:55:26;26.90;99.90
46055;DHT22;31788;6.954;-71.872;2022-11-22T12:58:34;26.90;99.90
46055;DHT22;31788;6.954;-71.872;2022-11-22T13:00:58;27.00;99.90
46055;DHT22;31788;6.954;-71.872;2022-11-22T13:06:10;27.00;99.90
46055;DHT22;31788;6.954;-71.872;2022-11-22T13:08:57;27.00;99.90
46055;DHT22;31788;6.954;-71.872;2022-11-22T13:11:31;27.10;99.90
46055;DHT22;31788;6.954;-71.872;2022-11-22T13:17:23;27.10;99.90
46055;DHT22;31788;6.954;-71.872;2022-11-22T13:19:57;27.10;99.90
46055;DHT22;31788;6.954;-71.872;2022-11-22T13:28:08;27.20;99.90
46055;DHT22;31788;6.954;-71.872;2022-11-22T13:30:37;27.20;99.90
46055;DHT22;31788;6.954;-71.872;2022-11-22T13:33:23;27.20;99.90
46055;DHT22;31788;6.954;-71.872;2022-11-22T13:36:21;27.30;99.90
46055;DHT22;31788;6.954;-71.872;2022-11-22T13:38:50;27.30;99.90
46055;DHT22;31788;6.954;-71.872;2022-11-22T13:43:58;27.30;99.90
46055;DHT22;31788;6.954;-71.872;2022-11-22T13:51:57;27.40;99.90
46055;DHT22;31788;6.954;-71.872;2022-11-22T13:57:22;27.40;99.70
46055;DHT22;31788;6.954;-71.872;2022-11-22T14:02:35;27.40;99.60
46055;DHT22;31788;6.954;-71.872;2022-11-22T14:05:15;27.40;99.60
46055;DHT22;31788;6.954;-71.872;2022-11-22T14:07:44;27.50;99.50
46055;DHT22;31788;6.954;-71.872;2022-11-22T14:56:22;27.90;99.10
46055;DHT22;31788;6.954;-71.872;2022-11-22T15:04:24;27.90;99.10
46055;DHT22;31788;6.954;-71.872;2022-11-22T15:10:37;27.90;99.10
46055;DHT22;31788;6.954;-71.872;2022-11-22T15:15:44;28.00;98.90
46055;DHT22;31788;6.954;-71.872;2022-11-22T15:18:22;28.00;98.90
46055;DHT22;31788;6.954;-71.872;2022-11-22T15:20:49;28.10;98.80
46055;DHT22;31788;6.954;-71.872;2022-11-22T15:23:21;28.10;98.90
46055;DHT22;31788;6.954;-71.872;2022-11-22T15:25:58;28.20;98.70
46055;DHT22;31788;6.954;-71.872;2022-11-22T15:28:25;28.20;98.80
46055;DHT22;31788;6.954;-71.872;2022-11-22T15:30:55;28.20;98.50
46055;DHT22;31788;6.954;-71.872;2022-11-22T15:33:30;28.20;98.50
46055;DHT22;31788;6.954;-71.872;2022-11-22T15:38:45;28.30;98.20
46055;DHT22;31788;6.954;-71.872;2022-11-22T15:41:20;28.30;98.00
46055;DHT22;31788;6.954;-71.872;2022-11-22T15:43:48;28.40;97.90
46055;DHT22;31788;6.954;-71.872;2022-11-22T15:46:16;28.40;98.10
46055;DHT22;31788;6.954;-71.872;2022-11-22T15:48:47;28.30;98.10
46055;DHT22;31788;6.954;-71.872;2022-11-22T15:53:56;28.40;98.10
46055;DHT22;31788;6.954;-71.872;2022-11-22T15:56:50;28.40;97.90
46055;DHT22;31788;6.954;-71.872;2022-11-22T15:59:35;28.40;98.10
46055;DHT22;31788;6.954;-71.872;2022-11-22T16:02:02;28.40;97.70
46055;DHT22;31788;6.954;-71.872;2022-11-22T16:04:35;28.40;97.60
46055;DHT22;31788;6.954;-71.872;2022-11-22T16:07:04;28.50;98.00
46055;DHT22;31788;6.954;-71.872;2022-11-22T16:09:36;28.40;97.70
46055;DHT22;31788;6.954;-71.872;2022-11-22T16:12:21;28.40;97.30
46055;DHT22;31788;6.954;-71.872;2022-11-22T16:14:50;28.50;97.70
46055;DHT22;31788;6.954;-71.872;2022-11-22T16:17:29;28.60;97.50
46055;DHT22;31788;6.954;-71.872;2022-11-22T16:25:44;28.60;97.60
46055;DHT22;31788;6.954;-71.872;2022-11-22T16:28:34;28.70;97.40
46055;DHT22;31788;6.954;-71.872;2022-11-22T16:31:15;28.70;97.50
46055;DHT22;31788;6.954;-71.872;2022-11-22T16:33:44;28.70;97.40
46055;DHT22;31788;6.954;-71.872;2022-11-22T16:36:13;28.70;97.40
46055;DHT22;31788;6.954;-71.872;2022-11-22T16:38:40;28.70;97.50
46055;DHT22;31788;6.954;-71.872;2022-11-22T16:41:41;28.70;97.70
46055;DHT22;31788;6.954;-71.872;2022-11-22T16:44:12;28.70;97.50
46055;DHT22;31788;6.954;-71.872;2022-11-22T16:46:39;28.70;97.50
46055;DHT22;31788;6.954;-71.872;2022-11-22T16:49:17;28.70;97.70
46055;DHT22;31788;6.954;-71.872;2022-11-22T16:51:45;28.70;97.80
46055;DHT22;31788;6.954;-71.872;2022-11-22T16:54:15;28.80;97.40
46055;DHT22;31788;6.954;-71.872;2022-11-22T16:56:42;28.90;97.70
46055;DHT22;31788;6.954;-71.872;2022-11-22T16:59:09;28.80;97.40
46055;DHT22;31788;6.954;-71.872;2022-11-22T17:01:42;28.90;97.80
46055;DHT22;31788;6.954;-71.872;2022-11-22T17:04:34;28.80;97.70
46055;DHT22;31788;6.954;-71.872;2022-11-22T17:07:01;28.80;98.00
46055;DHT22;31788;6.954;-71.872;2022-11-22T17:09:28;28.80;97.80
46055;DHT22;31788;6.954;-71.872;2022-11-22T17:11:54;28.90;97.80
46055;DHT22;31788;6.954;-71.872;2022-11-22T17:14:21;28.90;97.50
46055;DHT22;31788;6.954;-71.872;2022-11-22T17:16:48;29.00;97.60
46055;DHT22;31788;6.954;-71.872;2022-11-22T17:19:14;29.00;97.30
46055;DHT22;31788;6.954;-71.872;2022-11-22T17:21:42;29.00;97.30
46055;DHT22;31788;6.954;-71.872;2022-11-22T17:24:20;29.00;97.50
46055;DHT22;31788;6.954;-71.872;2022-11-22T17:26:49;29.00;97.40
46055;DHT22;31788;6.954;-71.872;2022-11-22T17:29:15;29.00;97.40
46055;DHT22;31788;6.954;-71.872;2022-11-22T17:31:43;29.00;97.20
46055;DHT22;31788;6.954;-71.872;2022-11-22T17:34:11;29.00;97.40
46055;DHT22;31788;6.954;-71.872;2022-11-22T17:36:38;29.00;97.40
46055;DHT22;31788;6.954;-71.872;2022-11-22T17:39:10;29.00;97.40
46055;DHT22;31788;6.954;-71.872;2022-11-22T17:41:37;29.00;97.30
46055;DHT22;31788;6.954;-71.872;2022-11-22T17:44:04;29.00;97.30
46055;DHT22;31788;6.954;-71.872;2022-11-22T17:46:33;29.00;97.20
46055;DHT22;31788;6.954;-71.872;2022-11-22T17:49:00;29.00;97.20
46055;DHT22;31788;6.954;-71.872;2022-11-22T17:51:28;29.00;97.10
46055;DHT22;31788;6.954;-71.872;2022-11-22T17:53:55;29.00;97.10
46055;DHT22;31788;6.954;-71.872;2022-11-22T17:56:26;29.00;96.60
46055;DHT22;31788;6.954;-71.872;2022-11-22T17:58:53;29.10;96.80
46055;DHT22;31788;6.954;-71.872;2022-11-22T18:01:21;29.10;96.80
46055;DHT22;31788;6.954;-71.872;2022-11-22T18:03:48;29.10;96.80
46055;DHT22;31788;6.954;-71.872;2022-11-22T18:06:16;29.10;96.90
46055;DHT22;31788;6.954;-71.872;2022-11-22T18:08:43;29.20;96.80
46055;DHT22;31788;6.954;-71.872;2022-11-22T18:11:10;29.20;96.80
46055;DHT22;31788;6.954;-71.872;2022-11-22T18:13:38;29.20;96.90
46055;DHT22;31788;6.954;-71.872;2022-11-22T18:16:08;29.20;96.80
46055;DHT22;31788;6.954;-71.872;2022-11-22T18:18:37;29.30;96.70
46055;DHT22;31788;6.954;-71.872;2022-11-22T18:21:04;29.20;96.80
46055;DHT22;31788;6.954;-71.872;2022-11-22T18:23:35;29.20;96.90
46055;DHT22;31788;6.954;-71.872;2022-11-22T18:26:03;29.20;96.80
46055;DHT22;31788;6.954;-71.872;2022-11-22T18:28:33;29.20;96.90